sensor_id;sensor_type;location;lat;lon;timestamp;temperature;humidity
11599;DHT22;5855;48.840;9.188;2023-06-14T00:00:09;15.10;97.50
11599;DHT22;5855;48.840;9.188;2023-06-14T00:02:38;15.10;97.40
11599;DHT22;5855;48.840;9.188;2023-06-14T00:05:06;15.00;97.60
11599;DHT22;5855;48.840;9.188;2023-06-14T00:07:37;15.00;99.00
11599;DHT22;5855;48.840;9.188;2023-06-14T00:10:08;14.90;99.80
11599;DHT22;5855;48.840;9.188;2023-06-14T00:12:37;14.90;99.90
11599;DHT22;5855;48.840;9.188;2023-06-14T00:15:05;14.80;99.90
11599;DHT22;5855;48.840;9.188;2023-06-14T00:17:32;14.80;99.90
11599;DHT22;5855;48.840;9.188;2023-06-14T00:20:00;14.70;99.90
11599;DHT22;5855;48.840;9.188;2023-06-14T00:22:29;14.60;99.90
11599;DHT22;5855;48.840;9.188;2023-06-14T00:24:56;14.60;99.90
11599;DHT22;5855;48.840;9.188;2023-06-14T00:27:23;14.40;99.90
11599;DHT22;5855;48.840;9.188;2023-06-14T00:29:51;14.30;99.90
11599;DHT22;5855;48.840;9.188;2023-06-14T00:32:18;14.30;99.90
11599;DHT22;5855;48.840;9.188;2023-06-14T00:34:50;14.20;99.90
11599;DHT22;5855;48.840;9.188;2023-06-14T00:37:16;14.10;99.90
11599;DHT22;5855;48.840;9.188;2023-06-14T00:39:43;14.00;99.90
11599;DHT22;5855;48.840;9.188;2023-06-14T00:42:10;14.00;99.90
11599;DHT22;5855;48.840;9.188;2023-06-14T00:44:37;14.00;99.90
11599;DHT22;5855;48.840;9.188;2023-06-14T00:47:06;14.00;99.90
11599;DHT22;5855;48.840;9.188;2023-06-14T00:49:33;14.00;99.90
11599;DHT22;5855;48.840;9.188;2023-06-14T00:52:00;14.00;99.90
11599;DHT22;5855;48.840;9.188;2023-06-14T00:54:27;14.00;99.90
11599;DHT22;5855;48.840;9.188;2023-06-14T00:56:54;14.00;99.90
11599;DHT22;5855;48.840;9.188;2023-06-14T00:59:21;14.00;99.90
11599;DHT22;5855;48.840;9.188;2023-06-14T01:01:48;14.00;99.90
11599;DHT22;5855;48.840;9.188;2023-06-14T01:04:17;14.00;99.90
11599;DHT22;5855;48.840;9.188;2023-06-14T01:06:51;13.90;99.90
11599;DHT22;5855;48.840;9.188;2023-06-14T01:09:27;14.00;99.90
11599;DHT22;5855;48.840;9.188;2023-06-14T01:12:00;13.90;99.90
11599;DHT22;5855;48.840;9.188;2023-06-14T01:14:30;13.80;99.90
11599;DHT22;5855;48.840;9.188;2023-06-14T01:16:58;13.90;99.90
11599;DHT22;5855;48.840;9.188;2023-06-14T01:19:27;13.80;99.90
11599;DHT22;5855;48.840;9.188;2023-06-14T01:21:55;13.80;99.90
11599;DHT22;5855;48.840;9.188;2023-06-14T01:24:23;13.80;99.90
11599;DHT22;5855;48.840;9.188;2023-06-14T01:26:58;13.70;99.90
11599;DHT22;5855;48.840;9.188;2023-06-14T01:29:26;13.60;99.90
11599;DHT22;5855;48.840;9.188;2023-06-14T01:31:58;13.50;99.90
11599;DHT22;5855;48.840;9.188;2023-06-14T01:34:25;13.50;99.90
11599;DHT22;5855;48.840;9.188;2023-06-14T01:36:53;13.50;99.90
11599;DHT22;5855;48.840;9.188;2023-06-14T01:39:21;13.50;99.90
11599;DHT22;5855;48.840;9.188;2023-06-14T01:41:51;13.50;99.90
11599;DHT22;5855;48.840;9.188;2023-06-14T01:44:19;13.50;99.90
11599;DHT22;5855;48.840;9.188;2023-06-14T01:46:46;13.50;99.90
11599;DHT22;5855;48.840;9.188;2023-06-14T01:49:14;13.50;99.90
11599;DHT22;5855;48.840;9.188;2023-06-14T01:51:40;13.40;99.90
11599;DHT22;5855;48.840;9.188;2023-06-14T01:54:07;13.40;99.90
11599;DHT22;5855;48.840;9.188;2023-06-14T01:56:34;13.40;99.90
11599;DHT22;5855;48.840;9.188;2023-06-14T01:59:02;13.40;99.90
11599;DHT22;5855;48.840;9.188;2023-06-14T02:01:29;13.40;99.90
11599;DHT22;5855;48.840;9.188;2023-06-14T02:03:56;13.40;99.90
11599;DHT22;5855;48.840;9.188;2023-06-14T02:06:26;13.40;99.90
11599;DHT22;5855;48.840;9.188;2023-06-14T02:08:53;13.30;99.90
11599;DHT22;5855;48.840;9.188;2023-06-14T02:11:19;13.30;99.90
11599;DHT22;5855;48.840;9.188;2023-06-14T02:13:48;13.30;99.90
11599;DHT22;5855;48.840;9.188;2023-06-14T02:16:17;13.20;99.90
11599;DHT22;5855;48.840;9.188;2023-06-14T02:18:44;13.20;99.90
11599;DHT22;5855;48.840;9.188;2023-06-14T02:21:11;13.20;99.90
11599;DHT22;5855;48.840;9.188;2023-06-14T02:23:38;13.10;99.90
11599;DHT22;5855;48.840;9.188;2023-06-14T02:26:05;13.10;99.90
11599;DHT22;5855;48.840;9.188;2023-06-14T02:28:32;13.10;99.90
11599;DHT22;5855;48.840;9.188;2023-06-14T02:30:59;13.10;99.90
11599;DHT22;5855;48.840;9.188;2023-06-14T02:33:27;13.00;99.90
11599;DHT22;5855;48.840;9.188;2023-06-14T02:35:54;13.00;99.90
11599;DHT22;5855;48.840;9.188;2023-06-14T02:38:21;13.00;99.90
11599;DHT22;5855;48.840;9.188;2023-06-14T02:40:48;12.90;99.90
11599;DHT22;5855;48.840;9.188;2023-06-14T02:43:15;12.90;99.90
11599;DHT22;5855;48.840;9.188;2023-06-14T02:46:02;12.90;99.90
11599;DHT22;5855;48.840;9.188;2023-06-14T02:48:33;12.90;99.90
11599;DHT22;5855;48.840;9.188;2023-06-14T02:51:00;12.90;99.90
11599;DHT22;5855;48.840;9.188;2023-06-14T02:53:27;12.90;99.90
11599;DHT22;5855;48.840;9.188;2023-06-14T02:55:54;12.80;99.90
11599;DHT22;5855;48.840;9.188;2023-06-14T02:58:21;12.80;99.90
11599;DHT22;5855;48.840;9.188;2023-06-14T03:00:50;12.80;99.90
11599;DHT22;5855;48.840;9.188;2023-06-14T03:03:18;12.80;99.90
11599;DHT22;5855;48.840;9.188;2023-06-14T03:05:50;12.80;99.90
11599;DHT22;5855;48.840;9.188;2023-06-14T03:08:17;12.80;99.90
11599;DHT22;5855;48.840;9.188;2023-06-14T03:10:45;12.80;99.90
11599;DHT22;5855;48.840;9.188;2023-06-14T03:13:12;12.70;99.90
11599;DHT22;5855;48.840;9.188;2023-06-14T03:15:39;12.70;99.90
11599;DHT22;5855;48.840;9.188;2023-06-14T03:18:07;12.70;99.90
11599;DHT22;5855;48.840;9.188;2023-06-14T03:20:34;12.60;99.90
11599;DHT22;5855;48.840;9.188;2023-06-14T03:23:03;12.60;99.90
11599;DHT22;5855;48.840;9.188;2023-06-14T03:25:30;12.60;99.90
11599;DHT22;5855;48.840;9.188;2023-06-14T03:28:01;12.60;99.90
11599;DHT22;5855;48.840;9.188;2023-06-14T03:30:29;12.60;99.90
11599;DHT22;5855;48.840;9.188;2023-06-14T03:32:56;12.60;99.90
11599;DHT22;5855;48.840;9.188;2023-06-14T03:35:23;12.60;99.90
11599;DHT22;5855;48.840;9.188;2023-06-14T03:37:50;12.60;99.90
11599;DHT22;5855;48.840;9.188;2023-06-14T03:40:19;12.60;99.90
11599;DHT22;5855;48.840;9.188;2023-06-14T03:42:46;12.60;99.90
11599;DHT22;5855;48.840;9.188;2023-06-14T03:45:13;12.60;99.90
11599;DHT22;5855;48.840;9.188;2023-06-14T03:47:40;12.60;99.90
11599;DHT22;5855;48.840;9.188;2023-06-14T03:50:07;12.60;99.90
11599;DHT22;5855;48.840;9.188;2023-06-14T03:52:34;12.60;99.90
11599;DHT22;5855;48.840;9.188;2023-06-14T03:55:02;12.50;99.90
11599;DHT22;5855;48.840;9.188;2023-06-14T03:57:31;12.50;99.90
11599;DHT22;5855;48.840;9.188;2023-06-14T03:59:57;12.60;99.90
11599;DHT22;5855;48.840;9.188;2023-06-14T04:02:24;12.60;99.90
11599;DHT22;5855;48.840;9.188;2023-06-14T04:04:54;12.70;99.90
11599;DHT22;5855;48.840;9.188;2023-06-14T04:07:21;12.70;99.90
11599;DHT22;5855;48.840;9.188;2023-06-14T04:09:49;12.70;99.90
11599;DHT22;5855;48.840;9.188;2023-06-14T04:12:15;12.80;99.90
11599;DHT22;5855;48.840;9.188;2023-06-14T04:14:44;12.80;99.90
11599;DHT22;5855;48.840;9.188;2023-06-14T04:17:11;12.80;99.90
11599;DHT22;5855;48.840;9.188;2023-06-14T04:19:38;12.90;99.90
11599;DHT22;5855;48.840;9.188;2023-06-14T04:22:05;12.90;99.90
11599;DHT22;5855;48.840;9.188;2023-06-14T04:24:32;12.90;99.90
11599;DHT22;5855;48.840;9.188;2023-06-14T04:27:01;13.00;99.90
11599;DHT22;5855;48.840;9.188;2023-06-14T04:29:28;13.10;99.90
11599;DHT22;5855;48.840;9.188;2023-06-14T04:31:56;13.20;99.90
11599;DHT22;5855;48.840;9.188;2023-06-14T04:34:26;13.20;99.90
11599;DHT22;5855;48.840;9.188;2023-06-14T04:36:55;13.20;99.90
11599;DHT22;5855;48.840;9.188;2023-06-14T04:39:23;13.20;99.90
11599;DHT22;5855;48.840;9.188;2023-06-14T04:41:50;13.30;99.90
11599;DHT22;5855;48.840;9.188;2023-06-14T04:44:23;13.30;99.90
11599;DHT22;5855;48.840;9.188;2023-06-14T04:46:56;13.30;99.90
11599;DHT22;5855;48.840;9.188;2023-06-14T04:49:24;13.40;99.90
11599;DHT22;5855;48.840;9.188;2023-06-14T04:51:52;13.50;99.90
11599;DHT22;5855;48.840;9.188;2023-06-14T04:54:24;13.60;99.90
11599;DHT22;5855;48.840;9.188;2023-06-14T04:56:51;13.60;99.90
11599;DHT22;5855;48.840;9.188;2023-06-14T04:59:20;13.70;99.90
11599;DHT22;5855;48.840;9.188;2023-06-14T05:01:48;13.80;99.90
11599;DHT22;5855;48.840;9.188;2023-06-14T05:04:17;13.90;99.90
11599;DHT22;5855;48.840;9.188;2023-06-14T05:06:44;14.00;99.90
11599;DHT22;5855;48.840;9.188;2023-06-14T05:09:14;14.10;99.90
11599;DHT22;5855;48.840;9.188;2023-06-14T05:11:42;14.20;99.90
11599;DHT22;5855;48.840;9.188;2023-06-14T05:14:10;14.20;99.90
11599;DHT22;5855;48.840;9.188;2023-06-14T05:16:37;14.30;99.90
11599;DHT22;5855;48.840;9.188;2023-06-14T05:19:04;14.30;99.90
11599;DHT22;5855;48.840;9.188;2023-06-14T05:21:32;14.40;99.90
11599;DHT22;5855;48.840;9.188;2023-06-14T05:24:00;14.50;99.90
11599;DHT22;5855;48.840;9.188;2023-06-14T05:26:27;14.60;99.90
11599;DHT22;5855;48.840;9.188;2023-06-14T05:28:54;14.70;99.90
11599;DHT22;5855;48.840;9.188;2023-06-14T05:31:22;14.80;99.90
11599;DHT22;5855;48.840;9.188;2023-06-14T05:33:49;14.90;99.90
11599;DHT22;5855;48.840;9.188;2023-06-14T05:36:16;15.00;99.90
11599;DHT22;5855;48.840;9.188;2023-06-14T05:38:45;15.10;99.90
11599;DHT22;5855;48.840;9.188;2023-06-14T05:41:12;15.20;99.90
11599;DHT22;5855;48.840;9.188;2023-06-14T05:43:39;15.30;99.90
11599;DHT22;5855;48.840;9.188;2023-06-14T05:46:06;15.40;99.90
11599;DHT22;5855;48.840;9.188;2023-06-14T05:48:33;15.60;99.90
11599;DHT22;5855;48.840;9.188;2023-06-14T05:51:00;15.70;99.90
11599;DHT22;5855;48.840;9.188;2023-06-14T05:53:27;15.80;99.90
11599;DHT22;5855;48.840;9.188;2023-06-14T05:55:55;15.90;99.90
11599;DHT22;5855;48.840;9.188;2023-06-14T05:58:22;15.90;99.90
11599;DHT22;5855;48.840;9.188;2023-06-14T06:00:48;16.00;99.90
11599;DHT22;5855;48.840;9.188;2023-06-14T06:03:16;16.10;99.90
11599;DHT22;5855;48.840;9.188;2023-06-14T06:05:43;16.20;99.90
11599;DHT22;5855;48.840;9.188;2023-06-14T06:08:10;16.30;99.90
11599;DHT22;5855;48.840;9.188;2023-06-14T06:10:36;16.40;99.90
11599;DHT22;5855;48.840;9.188;2023-06-14T06:13:05;16.60;99.90
11599;DHT22;5855;48.840;9.188;2023-06-14T06:15:31;16.70;99.90
11599;DHT22;5855;48.840;9.188;2023-06-14T06:17:58;16.80;99.90
11599;DHT22;5855;48.840;9.188;2023-06-14T06:20:25;16.90;99.90
11599;DHT22;5855;48.840;9.188;2023-06-14T06:22:54;17.00;99.90
11599;DHT22;5855;48.840;9.188;2023-06-14T06:25:21;17.10;99.90
11599;DHT22;5855;48.840;9.188;2023-06-14T06:27:51;17.20;99.90
11599;DHT22;5855;48.840;9.188;2023-06-14T06:30:20;17.30;99.90
11599;DHT22;5855;48.840;9.188;2023-06-14T06:32:47;17.50;99.90
11599;DHT22;5855;48.840;9.188;2023-06-14T06:35:14;17.60;99.90
11599;DHT22;5855;48.840;9.188;2023-06-14T06:37:41;17.70;99.90
11599;DHT22;5855;48.840;9.188;2023-06-14T06:40:09;17.80;99.90
11599;DHT22;5855;48.840;9.188;2023-06-14T06:42:36;17.90;99.90
11599;DHT22;5855;48.840;9.188;2023-06-14T06:45:03;18.00;99.90
11599;DHT22;5855;48.840;9.188;2023-06-14T06:47:32;18.10;99.90
11599;DHT22;5855;48.840;9.188;2023-06-14T06:49:59;18.30;99.90
11599;DHT22;5855;48.840;9.188;2023-06-14T06:52:25;18.40;99.90
11599;DHT22;5855;48.840;9.188;2023-06-14T06:54:52;18.50;99.90
11599;DHT22;5855;48.840;9.188;2023-06-14T06:57:20;18.60;99.90
11599;DHT22;5855;48.840;9.188;2023-06-14T06:59:48;18.70;99.90
11599;DHT22;5855;48.840;9.188;2023-06-14T07:02:15;18.90;99.90
11599;DHT22;5855;48.840;9.188;2023-06-14T07:04:43;19.00;99.90
11599;DHT22;5855;48.840;9.188;2023-06-14T07:07:10;19.20;99.40
11599;DHT22;5855;48.840;9.188;2023-06-14T07:09:37;19.30;99.10
11599;DHT22;5855;48.840;9.188;2023-06-14T07:12:04;19.40;98.20
11599;DHT22;5855;48.840;9.188;2023-06-14T07:14:32;19.50;97.90
11599;DHT22;5855;48.840;9.188;2023-06-14T07:16:59;19.60;97.50
11599;DHT22;5855;48.840;9.188;2023-06-14T07:19:25;19.70;97.10
11599;DHT22;5855;48.840;9.188;2023-06-14T07:21:54;19.80;96.80
11599;DHT22;5855;48.840;9.188;2023-06-14T07:24:21;19.90;96.90
11599;DHT22;5855;48.840;9.188;2023-06-14T07:26:47;20.10;96.60
11599;DHT22;5855;48.840;9.188;2023-06-14T07:29:14;20.20;95.70
11599;DHT22;5855;48.840;9.188;2023-06-14T07:31:42;20.30;95.60
11599;DHT22;5855;48.840;9.188;2023-06-14T07:34:09;20.50;95.60
11599;DHT22;5855;48.840;9.188;2023-06-14T07:36:36;20.70;95.30
11599;DHT22;5855;48.840;9.188;2023-06-14T07:39:05;20.80;94.50
11599;DHT22;5855;48.840;9.188;2023-06-14T07:41:32;20.90;94.60
11599;DHT22;5855;48.840;9.188;2023-06-14T07:43:59;21.00;94.50
11599;DHT22;5855;48.840;9.188;2023-06-14T07:46:26;21.10;94.50
11599;DHT22;5855;48.840;9.188;2023-06-14T07:48:52;21.20;94.10
11599;DHT22;5855;48.840;9.188;2023-06-14T07:51:19;21.30;94.30
11599;DHT22;5855;48.840;9.188;2023-06-14T07:53:47;21.40;93.80
11599;DHT22;5855;48.840;9.188;2023-06-14T07:56:16;21.50;93.20
11599;DHT22;5855;48.840;9.188;2023-06-14T07:58:42;21.40;93.00
11599;DHT22;5855;48.840;9.188;2023-06-14T08:01:09;21.50;93.70
11599;DHT22;5855;48.840;9.188;2023-06-14T08:03:37;21.60;93.30
11599;DHT22;5855;48.840;9.188;2023-06-14T08:06:04;21.90;93.10
11599;DHT22;5855;48.840;9.188;2023-06-14T08:08:31;22.00;92.70
11599;DHT22;5855;48.840;9.188;2023-06-14T08:10:58;22.20;91.50
11599;DHT22;5855;48.840;9.188;2023-06-14T08:13:26;22.40;90.90
11599;DHT22;5855;48.840;9.188;2023-06-14T08:15:53;22.50;91.10
11599;DHT22;5855;48.840;9.188;2023-06-14T08:18:20;22.70;91.10
11599;DHT22;5855;48.840;9.188;2023-06-14T08:20:47;22.80;90.60
11599;DHT22;5855;48.840;9.188;2023-06-14T08:23:15;23.00;89.60
11599;DHT22;5855;48.840;9.188;2023-06-14T08:25:44;23.10;88.50
11599;DHT22;5855;48.840;9.188;2023-06-14T08:28:11;23.20;88.90
11599;DHT22;5855;48.840;9.188;2023-06-14T08:30:39;23.30;87.40
11599;DHT22;5855;48.840;9.188;2023-06-14T08:33:06;23.50;88.40
11599;DHT22;5855;48.840;9.188;2023-06-14T08:35:33;23.60;88.50
11599;DHT22;5855;48.840;9.188;2023-06-14T08:38:02;23.80;85.30
11599;DHT22;5855;48.840;9.188;2023-06-14T08:40:30;23.90;84.60
11599;DHT22;5855;48.840;9.188;2023-06-14T08:42:57;24.10;84.30
11599;DHT22;5855;48.840;9.188;2023-06-14T08:45:24;24.10;83.00
11599;DHT22;5855;48.840;9.188;2023-06-14T08:47:53;24.20;84.40
11599;DHT22;5855;48.840;9.188;2023-06-14T08:50:24;24.50;82.80
11599;DHT22;5855;48.840;9.188;2023-06-14T08:52:57;24.60;80.10
11599;DHT22;5855;48.840;9.188;2023-06-14T08:55:27;24.60;80.60
11599;DHT22;5855;48.840;9.188;2023-06-14T08:57:55;24.80;81.20
11599;DHT22;5855;48.840;9.188;2023-06-14T09:00:23;25.00;79.70
11599;DHT22;5855;48.840;9.188;2023-06-14T09:02:50;25.10;78.70
11599;DHT22;5855;48.840;9.188;2023-06-14T09:05:23;25.20;78.80
11599;DHT22;5855;48.840;9.188;2023-06-14T09:07:49;25.30;77.80
11599;DHT22;5855;48.840;9.188;2023-06-14T09:10:21;25.50;76.80
11599;DHT22;5855;48.840;9.188;2023-06-14T09:12:48;25.60;76.00
11599;DHT22;5855;48.840;9.188;2023-06-14T09:15:14;25.90;76.60
11599;DHT22;5855;48.840;9.188;2023-06-14T09:17:43;25.90;74.60
11599;DHT22;5855;48.840;9.188;2023-06-14T09:20:10;26.10;73.70
11599;DHT22;5855;48.840;9.188;2023-06-14T09:22:40;26.20;72.30
11599;DHT22;5855;48.840;9.188;2023-06-14T09:25:08;26.40;70.10
11599;DHT22;5855;48.840;9.188;2023-06-14T09:27:35;26.30;67.90
11599;DHT22;5855;48.840;9.188;2023-06-14T09:30:05;26.40;69.50
11599;DHT22;5855;48.840;9.188;2023-06-14T09:32:36;26.40;68.40
11599;DHT22;5855;48.840;9.188;2023-06-14T09:35:04;26.50;67.30
11599;DHT22;5855;48.840;9.188;2023-06-14T09:37:33;26.70;67.00
11599;DHT22;5855;48.840;9.188;2023-06-14T09:40:03;26.80;65.30
11599;DHT22;5855;48.840;9.188;2023-06-14T09:42:32;27.00;65.40
11599;DHT22;5855;48.840;9.188;2023-06-14T09:45:04;27.00;65.90
11599;DHT22;5855;48.840;9.188;2023-06-14T09:47:31;27.00;66.30
11599;DHT22;5855;48.840;9.188;2023-06-14T09:49:58;27.20;65.10
11599;DHT22;5855;48.840;9.188;2023-06-14T09:52:27;27.30;63.60
11599;DHT22;5855;48.840;9.188;2023-06-14T09:54:55;27.50;61.40
11599;DHT22;5855;48.840;9.188;2023-06-14T09:57:23;27.60;59.50
11599;DHT22;5855;48.840;9.188;2023-06-14T09:59:55;27.40;57.50
11599;DHT22;5855;48.840;9.188;2023-06-14T10:02:25;27.20;58.40
11599;DHT22;5855;48.840;9.188;2023-06-14T10:04:57;27.60;58.80
11599;DHT22;5855;48.840;9.188;2023-06-14T10:07:26;27.90;58.40
11599;DHT22;5855;48.840;9.188;2023-06-14T10:09:57;28.00;57.00
11599;DHT22;5855;48.840;9.188;2023-06-14T10:12:25;28.00;56.20
11599;DHT22;5855;48.840;9.188;2023-06-14T10:14:53;28.00;53.60
11599;DHT22;5855;48.840;9.188;2023-06-14T10:17:26;27.90;52.80
11599;DHT22;5855;48.840;9.188;2023-06-14T10:20:06;28.10;50.80
11599;DHT22;5855;48.840;9.188;2023-06-14T10:22:42;28.60;48.90
11599;DHT22;5855;48.840;9.188;2023-06-14T10:25:13;29.00;46.20
11599;DHT22;5855;48.840;9.188;2023-06-14T10:28:02;29.30;46.90
11599;DHT22;5855;48.840;9.188;2023-06-14T10:30:29;29.30;46.00
11599;DHT22;5855;48.840;9.188;2023-06-14T10:33:05;29.90;45.80
11599;DHT22;5855;48.840;9.188;2023-06-14T10:35:33;30.10;46.10
11599;DHT22;5855;48.840;9.188;2023-06-14T10:38:10;30.10;46.00
11599;DHT22;5855;48.840;9.188;2023-06-14T10:40:39;30.10;45.50
11599;DHT22;5855;48.840;9.188;2023-06-14T10:43:23;29.90;43.00
11599;DHT22;5855;48.840;9.188;2023-06-14T10:46:16;29.90;42.10
11599;DHT22;5855;48.840;9.188;2023-06-14T10:48:43;29.90;40.60
11599;DHT22;5855;48.840;9.188;2023-06-14T10:51:16;30.30;37.70
11599;DHT22;5855;48.840;9.188;2023-06-14T10:53:46;30.60;36.60
11599;DHT22;5855;48.840;9.188;2023-06-14T10:56:25;30.90;35.30
11599;DHT22;5855;48.840;9.188;2023-06-14T10:58:56;31.20;33.60
11599;DHT22;5855;48.840;9.188;2023-06-14T11:01:32;31.60;32.30
11599;DHT22;5855;48.840;9.188;2023-06-14T11:04:07;31.60;33.30
11599;DHT22;5855;48.840;9.188;2023-06-14T11:06:47;31.90;33.40
11599;DHT22;5855;48.840;9.188;2023-06-14T11:09:51;32.20;32.20
11599;DHT22;5855;48.840;9.188;2023-06-14T11:12:27;31.80;30.50
11599;DHT22;5855;48.840;9.188;2023-06-14T11:14:56;32.20;29.90
11599;DHT22;5855;48.840;9.188;2023-06-14T11:17:23;32.80;30.10
11599;DHT22;5855;48.840;9.188;2023-06-14T11:19:49;33.00;28.80
11599;DHT22;5855;48.840;9.188;2023-06-14T11:22:16;32.80;29.30
11599;DHT22;5855;48.840;9.188;2023-06-14T11:24:43;32.80;28.00
11599;DHT22;5855;48.840;9.188;2023-06-14T11:27:10;32.50;28.20
11599;DHT22;5855;48.840;9.188;2023-06-14T11:29:38;32.80;28.00
11599;DHT22;5855;48.840;9.188;2023-06-14T11:32:08;33.20;27.70
11599;DHT22;5855;48.840;9.188;2023-06-14T11:34:37;33.60;26.60
11599;DHT22;5855;48.840;9.188;2023-06-14T11:37:05;34.10;26.80
11599;DHT22;5855;48.840;9.188;2023-06-14T11:39:32;34.20;25.20
11599;DHT22;5855;48.840;9.188;2023-06-14T11:41:59;33.90;24.60
11599;DHT22;5855;48.840;9.188;2023-06-14T11:44:26;33.70;24.00
11599;DHT22;5855;48.840;9.188;2023-06-14T11:46:54;33.70;24.00
11599;DHT22;5855;48.840;9.188;2023-06-14T11:49:24;33.80;23.70
11599;DHT22;5855;48.840;9.188;2023-06-14T11:51:53;34.40;22.70
11599;DHT22;5855;48.840;9.188;2023-06-14T11:54:20;35.00;22.40
11599;DHT22;5855;48.840;9.188;2023-06-14T11:56:47;34.90;22.00
11599;DHT22;5855;48.840;9.188;2023-06-14T11:59:14;35.60;22.20
11599;DHT22;5855;48.840;9.188;2023-06-14T12:01:42;36.00;21.80
11599;DHT22;5855;48.840;9.188;2023-06-14T12:04:10;36.70;20.90
11599;DHT22;5855;48.840;9.188;2023-06-14T12:06:39;36.70;19.80
11599;DHT22;5855;48.840;9.188;2023-06-14T12:09:07;36.10;19.60
11599;DHT22;5855;48.840;9.188;2023-06-14T12:11:38;36.60;19.90
11599;DHT22;5855;48.840;9.188;2023-06-14T12:14:06;37.20;19.70
11599;DHT22;5855;48.840;9.188;2023-06-14T12:16:37;36.60;18.90
11599;DHT22;5855;48.840;9.188;2023-06-14T12:19:13;36.10;19.50
11599;DHT22;5855;48.840;9.188;2023-06-14T12:21:42;35.80;19.70
11599;DHT22;5855;48.840;9.188;2023-06-14T12:24:11;35.40;19.80
11599;DHT22;5855;48.840;9.188;2023-06-14T12:26:42;35.10;20.90
11599;DHT22;5855;48.840;9.188;2023-06-14T12:29:09;35.40;20.50
11599;DHT22;5855;48.840;9.188;2023-06-14T12:31:37;36.50;20.20
11599;DHT22;5855;48.840;9.188;2023-06-14T12:34:04;36.40;19.40
11599;DHT22;5855;48.840;9.188;2023-06-14T12:36:34;36.90;19.10
11599;DHT22;5855;48.840;9.188;2023-06-14T12:39:08;37.30;18.30
11599;DHT22;5855;48.840;9.188;2023-06-14T12:41:35;38.30;17.90
11599;DHT22;5855;48.840;9.188;2023-06-14T12:44:03;39.20;17.10
11599;DHT22;5855;48.840;9.188;2023-06-14T12:46:30;40.00;15.90
11599;DHT22;5855;48.840;9.188;2023-06-14T12:48:57;40.80;15.10
11599;DHT22;5855;48.840;9.188;2023-06-14T12:51:24;41.20;14.10
11599;DHT22;5855;48.840;9.188;2023-06-14T12:53:51;41.40;13.70
11599;DHT22;5855;48.840;9.188;2023-06-14T12:56:19;42.30;12.70
11599;DHT22;5855;48.840;9.188;2023-06-14T12:58:46;42.60;12.90
11599;DHT22;5855;48.840;9.188;2023-06-14T13:01:13;42.80;12.50
11599;DHT22;5855;48.840;9.188;2023-06-14T13:03:40;43.20;12.50
11599;DHT22;5855;48.840;9.188;2023-06-14T13:06:06;43.50;12.10
11599;DHT22;5855;48.840;9.188;2023-06-14T13:08:33;43.80;11.70
11599;DHT22;5855;48.840;9.188;2023-06-14T13:11:00;42.50;11.00
11599;DHT22;5855;48.840;9.188;2023-06-14T13:13:28;43.00;11.10
11599;DHT22;5855;48.840;9.188;2023-06-14T13:15:55;42.70;10.80
11599;DHT22;5855;48.840;9.188;2023-06-14T13:18:22;43.00;10.70
11599;DHT22;5855;48.840;9.188;2023-06-14T13:20:49;43.20;10.70
11599;DHT22;5855;48.840;9.188;2023-06-14T13:23:16;43.60;10.90
11599;DHT22;5855;48.840;9.188;2023-06-14T13:25:43;43.50;10.50
11599;DHT22;5855;48.840;9.188;2023-06-14T13:28:10;43.90;10.10
11599;DHT22;5855;48.840;9.188;2023-06-14T13:30:39;44.80;9.30
11599;DHT22;5855;48.840;9.188;2023-06-14T13:33:05;45.40;8.60
11599;DHT22;5855;48.840;9.188;2023-06-14T13:35:32;45.70;9.00
11599;DHT22;5855;48.840;9.188;2023-06-14T13:37:59;44.60;8.40
11599;DHT22;5855;48.840;9.188;2023-06-14T13:40:26;44.20;9.10
11599;DHT22;5855;48.840;9.188;2023-06-14T13:42:53;44.10;8.80
11599;DHT22;5855;48.840;9.188;2023-06-14T13:45:23;42.60;9.20
11599;DHT22;5855;48.840;9.188;2023-06-14T13:47:51;43.20;9.60
11599;DHT22;5855;48.840;9.188;2023-06-14T13:50:19;43.90;8.60
11599;DHT22;5855;48.840;9.188;2023-06-14T13:52:46;44.40;8.40
11599;DHT22;5855;48.840;9.188;2023-06-14T13:55:13;43.90;8.20
11599;DHT22;5855;48.840;9.188;2023-06-14T13:57:39;43.40;9.10
11599;DHT22;5855;48.840;9.188;2023-06-14T14:00:07;42.30;9.50
11599;DHT22;5855;48.840;9.188;2023-06-14T14:02:35;40.50;11.00
11599;DHT22;5855;48.840;9.188;2023-06-14T14:05:03;39.90;11.50
11599;DHT22;5855;48.840;9.188;2023-06-14T14:07:30;40.30;11.80
11599;DHT22;5855;48.840;9.188;2023-06-14T14:09:57;41.30;11.20
11599;DHT22;5855;48.840;9.188;2023-06-14T14:12:24;42.30;10.50
11599;DHT22;5855;48.840;9.188;2023-06-14T14:14:51;42.70;9.40
11599;DHT22;5855;48.840;9.188;2023-06-14T14:17:18;42.50;9.50
11599;DHT22;5855;48.840;9.188;2023-06-14T14:19:45;42.60;9.10
11599;DHT22;5855;48.840;9.188;2023-06-14T14:22:13;43.50;8.60
11599;DHT22;5855;48.840;9.188;2023-06-14T14:24:46;44.00;8.80
11599;DHT22;5855;48.840;9.188;2023-06-14T14:27:12;44.60;8.30
11599;DHT22;5855;48.840;9.188;2023-06-14T14:29:42;45.10;7.90
11599;DHT22;5855;48.840;9.188;2023-06-14T14:32:09;45.80;7.30
11599;DHT22;5855;48.840;9.188;2023-06-14T14:34:39;46.10;7.10
11599;DHT22;5855;48.840;9.188;2023-06-14T14:37:06;46.60;6.80
11599;DHT22;5855;48.840;9.188;2023-06-14T14:39:34;47.00;6.00
11599;DHT22;5855;48.840;9.188;2023-06-14T14:42:01;46.50;6.20
11599;DHT22;5855;48.840;9.188;2023-06-14T14:44:28;46.40;5.90
11599;DHT22;5855;48.840;9.188;2023-06-14T14:47:14;45.60;6.10
11599;DHT22;5855;48.840;9.188;2023-06-14T14:49:41;44.00;7.20
11599;DHT22;5855;48.840;9.188;2023-06-14T14:52:08;42.50;8.00
11599;DHT22;5855;48.840;9.188;2023-06-14T14:54:36;41.10;8.90
11599;DHT22;5855;48.840;9.188;2023-06-14T14:57:03;39.80;9.60
11599;DHT22;5855;48.840;9.188;2023-06-14T14:59:30;38.70;10.30
11599;DHT22;5855;48.840;9.188;2023-06-14T15:01:57;37.80;11.30
11599;DHT22;5855;48.840;9.188;2023-06-14T15:04:24;37.10;11.80
11599;DHT22;5855;48.840;9.188;2023-06-14T15:06:51;36.80;12.30
11599;DHT22;5855;48.840;9.188;2023-06-14T15:09:18;37.50;12.10
11599;DHT22;5855;48.840;9.188;2023-06-14T15:11:46;38.40;11.60
11599;DHT22;5855;48.840;9.188;2023-06-14T15:14:13;39.20;10.60
11599;DHT22;5855;48.840;9.188;2023-06-14T15:16:40;40.00;10.60
11599;DHT22;5855;48.840;9.188;2023-06-14T15:19:07;40.50;9.90
11599;DHT22;5855;48.840;9.188;2023-06-14T15:21:34;40.60;9.90
11599;DHT22;5855;48.840;9.188;2023-06-14T15:24:01;40.30;9.60
11599;DHT22;5855;48.840;9.188;2023-06-14T15:26:28;40.40;9.60
11599;DHT22;5855;48.840;9.188;2023-06-14T15:28:56;39.80;10.00
11599;DHT22;5855;48.840;9.188;2023-06-14T15:31:23;39.10;10.50
11599;DHT22;5855;48.840;9.188;2023-06-14T15:33:53;37.80;11.10
11599;DHT22;5855;48.840;9.188;2023-06-14T15:36:20;36.70;12.00
11599;DHT22;5855;48.840;9.188;2023-06-14T15:38:49;36.10;12.80
11599;DHT22;5855;48.840;9.188;2023-06-14T15:41:15;35.30;13.50
11599;DHT22;5855;48.840;9.188;2023-06-14T15:43:42;35.10;14.10
11599;DHT22;5855;48.840;9.188;2023-06-14T15:46:10;35.60;13.80
11599;DHT22;5855;48.840;9.188;2023-06-14T15:48:37;36.70;13.10
11599;DHT22;5855;48.840;9.188;2023-06-14T15:51:04;37.70;11.80
11599;DHT22;5855;48.840;9.188;2023-06-14T15:53:31;38.60;11.10